Aviles, Spain
Current Conditions -  °F | °C
As of 8:00 AM on Sunday 23 Nov 2014 (Local Time) from LEAS Reporting Station
Light Rain Light Rain  
Wind Chill: 55°   Ceiling: 400
Heat Index: 55°   Visibility: 2.1mi
Dew Point: 55°   Wind: 6mph
Humidity: 100%   Direction: 290°WNW
Pressure: 29.85"   Gusts: NA
Location:  43.55°N, 5.92°W
Report Text: LEAS 230700Z 29005KT 260V320 3500 -DZRA SCT003 OVC004 13/13 Q1011 TEMPO 1500 RADZ BKN004
Loading
Personal Weather Stations






























Interactive Weather Map New forecast layout! Learn more

10-Day Weather Forecast

Advertisements
Track Severe Weather on mobile